Time;durP1;ratioP1;P1;durP2;ratioP2;P2;SDS_P1;SDS_P2;PMS_P1;PMS_P2;Temp;Humidity;BMP_temperature;BMP_pressure;BME280_temperature;BME280_humidity;BME280_pressure;Samples;Min_cycle;Max_cycle;Signal;HPM_P1;HPM_P2
2022/04/21 00:00:09;;;;;;;4.73;3.67;;;6.90;99.90;;;;;;5035246;28;20219;-76
2022/04/21 00:02:35;;;;;;;3.90;3.20;;;6.90;99.90;;;;;;5034821;28;20178;-76
2022/04/21 00:05:01;;;;;;;4.50;3.63;;;6.90;99.90;;;;;;5035310;28;20648;-76
2022/04/21 00:07:26;;;;;;;4.03;3.63;;;6.80;99.90;;;;;;5034811;28;20216;-76
2022/04/21 00:09:52;;;;;;;5.67;3.73;;;6.80;99.90;;;;;;5034792;28;20204;-76
2022/04/21 00:12:18;;;;;;;4.67;3.80;;;6.80;99.90;;;;;;5034563;28;20189;-76
2022/04/21 00:14:43;;;;;;;5.13;3.70;;;6.80;99.90;;;;;;5034091;28;20216;-76
2022/04/21 00:17:09;;;;;;;4.47;3.63;;;6.80;99.90;;;;;;5034477;28;20208;-76
2022/04/21 00:19:36;;;;;;;5.07;3.40;;;6.80;99.90;;;;;;5034898;28;20670;-76
2022/04/21 00:24:45;;;;;;;4.33;3.47;;;7.10;99.90;;;;;;5051689;28;20274;-76
2022/04/21 00:27:11;;;;;;;4.83;3.70;;;7.00;99.90;;;;;;5034433;28;20216;-76
2022/04/21 00:29:37;;;;;;;5.10;3.67;;;7.20;99.90;;;;;;5034683;28;20285;-76
2022/04/21 00:32:03;;;;;;;4.00;3.60;;;7.20;99.90;;;;;;5034420;28;20531;-76
2022/04/21 00:34:31;;;;;;;4.43;3.87;;;7.10;99.90;;;;;;5051128;28;20723;-76
2022/04/21 00:36:56;;;;;;;4.93;4.00;;;7.20;99.90;;;;;;5034490;28;20639;-76
2022/04/21 00:39:22;;;;;;;6.43;3.90;;;7.20;99.90;;;;;;5034644;28;20211;-76
2022/04/21 00:41:48;;;;;;;4.77;3.50;;;7.30;99.90;;;;;;5034296;28;20231;-76
2022/04/21 00:44:13;;;;;;;3.87;3.40;;;7.10;99.90;;;;;;5034228;28;20196;-76
2022/04/21 00:46:41;;;;;;;4.10;3.70;;;7.00;99.90;;;;;;5034421;28;20231;-76
2022/04/21 00:49:08;;;;;;;4.10;3.33;;;6.80;99.90;;;;;;5050851;28;20200;-76
2022/04/21 00:51:35;;;;;;;4.37;3.60;;;6.80;99.90;;;;;;5034233;28;20558;-76
2022/04/21 00:54:00;;;;;;;4.87;3.93;;;6.60;99.90;;;;;;5033903;28;20212;-76
2022/04/21 00:56:26;;;;;;;4.50;4.00;;;6.50;99.90;;;;;;5050704;28;20547;-76
2022/04/21 00:58:53;;;;;;;3.70;3.40;;;6.70;99.90;;;;;;5026302;28;143817;-76
2022/04/21 01:04:04;;;;;;;4.20;3.80;;;6.70;99.90;;;;;;5051899;28;20194;-76
2022/04/21 01:06:30;;;;;;;5.47;3.73;;;6.70;99.90;;;;;;5034856;28;20186;-76
2022/04/21 01:08:55;;;;;;;5.97;3.70;;;6.70;99.90;;;;;;5034636;28;20203;-76
2022/04/21 01:11:21;;;;;;;4.53;4.03;;;6.70;99.90;;;;;;5034760;28;20187;-76
2022/04/21 01:13:47;;;;;;;4.80;3.97;;;6.70;99.90;;;;;;5051197;28;20222;-76
2022/04/21 01:16:13;;;;;;;4.13;3.70;;;6.70;99.90;;;;;;5034649;28;20179;-76
2022/04/21 01:18:41;;;;;;;4.50;3.70;;;6.60;99.90;;;;;;5034612;28;20543;-76
2022/04/21 01:21:07;;;;;;;5.93;4.00;;;6.70;99.90;;;;;;5051211;28;20170;-76
2022/04/21 01:23:32;;;;;;;4.87;3.63;;;6.70;99.90;;;;;;5034612;28;20175;-76
2022/04/21 01:26:01;;;;;;;4.13;3.67;;;6.60;99.90;;;;;;5034582;28;20178;-76
2022/04/21 01:28:27;;;;;;;5.20;4.30;;;6.70;99.90;;;;;;5034449;28;20261;-76
2022/04/21 01:30:57;;;;;;;5.00;3.83;;;6.60;99.90;;;;;;5034366;28;20585;-76
2022/04/21 01:33:23;;;;;;;7.13;4.10;;;6.60;99.90;;;;;;5034274;28;20629;-76
2022/04/21 01:35:48;;;;;;;5.10;3.80;;;6.60;99.90;;;;;;5034166;28;20646;-76
2022/04/21 01:41:11;;;;;;;5.50;3.70;;;6.50;99.90;;;;;;5051508;28;20269;-76
2022/04/21 01:43:37;;;;;;;4.43;3.60;;;6.50;99.90;;;;;;5034218;28;20182;-76
2022/04/21 01:46:04;;;;;;;4.87;3.50;;;6.60;99.90;;;;;;5034528;28;20207;-76
2022/04/21 01:48:29;;;;;;;6.27;3.60;;;6.70;99.90;;;;;;5034482;28;20196;-76
2022/04/21 01:50:56;;;;;;;5.20;3.57;;;6.60;99.90;;;;;;5034477;28;20175;-76
2022/04/21 01:53:22;;;;;;;4.03;3.63;;;6.50;99.90;;;;;;5034002;28;20208;-76
2022/04/21 01:55:47;;;;;;;4.20;3.80;;;6.30;99.90;;;;;;5034161;28;20175;-76
2022/04/21 01:58:13;;;;;;;3.90;3.50;;;6.30;99.90;;;;;;5033962;28;20178;-76
2022/04/21 02:00:40;;;;;;;4.90;3.77;;;6.30;99.90;;;;;;5051949;28;20628;-76
2022/04/21 02:03:06;;;;;;;3.80;3.40;;;6.20;99.90;;;;;;5051845;28;20163;-76
2022/04/21 02:05:32;;;;;;;5.40;3.60;;;6.20;99.90;;;;;;5034302;28;20202;-76
2022/04/21 02:07:57;;;;;;;4.13;3.47;;;6.20;99.90;;;;;;5034235;28;20175;-76
2022/04/21 02:10:23;;;;;;;4.90;4.07;;;6.10;99.90;;;;;;5033788;28;20281;-76
2022/04/21 02:12:49;;;;;;;5.70;3.73;;;6.00;99.90;;;;;;5033766;28;20175;-76
2022/04/21 02:15:17;;;;;;;5.70;4.20;;;6.10;99.90;;;;;;5033888;28;20223;-76
2022/04/21 02:17:44;;;;;;;3.93;3.53;;;6.10;99.90;;;;;;5033952;28;20265;-76
2022/04/21 02:20:12;;;;;;;4.07;3.67;;;6.10;99.90;;;;;;5033879;28;20186;-76
2022/04/21 02:22:37;;;;;;;4.13;3.70;;;6.10;99.90;;;;;;5033673;28;20663;-76
2022/04/21 02:25:05;;;;;;;5.57;3.90;;;6.00;99.90;;;;;;5033969;28;20182;-76
2022/04/21 02:27:31;;;;;;;4.47;3.97;;;6.00;99.90;;;;;;5034006;28;20174;-76
2022/04/21 02:29:56;;;;;;;5.17;4.20;;;5.90;99.90;;;;;;5033724;28;20621;-76
2022/04/21 02:32:22;;;;;;;5.43;4.00;;;5.90;99.90;;;;;;5033615;28;20199;-76
2022/04/21 02:34:48;;;;;;;6.70;4.20;;;5.90;99.90;;;;;;5033712;28;20293;-76
2022/04/21 02:37:13;;;;;;;5.63;4.17;;;5.90;99.90;;;;;;5033915;28;20314;-76
2022/04/21 02:39:39;;;;;;;5.07;4.00;;;5.90;99.90;;;;;;5036112;28;20206;-76
2022/04/21 02:42:05;;;;;;;5.60;4.00;;;6.00;99.90;;;;;;5037341;28;20696;-76
2022/04/21 02:44:31;;;;;;;4.73;4.10;;;6.00;99.90;;;;;;5037258;28;20712;-76
2022/04/21 02:47:14;;;;;;;5.13;4.20;;;5.90;99.90;;;;;;5053902;28;20199;-76
2022/04/21 02:49:45;;;;;;;6.13;4.37;;;5.80;99.90;;;;;;5037837;28;20293;-76
2022/04/21 02:52:11;;;;;;;4.37;3.97;;;5.80;99.90;;;;;;5037577;28;20181;-76
2022/04/21 02:57:21;;;;;;;5.23;3.30;;;5.60;99.90;;;;;;5055010;28;20166;-76
2022/04/21 03:00:02;;;;;;;4.70;4.00;;;5.40;99.90;;;;;;5037450;28;20593;-76
2022/04/21 03:02:27;;;;;;;5.13;3.83;;;5.40;99.90;;;;;;5037504;28;20181;-76
2022/04/21 03:04:54;;;;;;;7.27;4.00;;;5.40;99.90;;;;;;5037623;28;20186;-76
2022/04/21 03:07:21;;;;;;;4.33;3.93;;;5.30;99.90;;;;;;5037748;28;20209;-76
2022/04/21 03:09:47;;;;;;;4.93;4.07;;;5.40;99.90;;;;;;5037718;28;20198;-76
2022/04/21 03:12:13;;;;;;;4.83;4.20;;;5.50;99.90;;;;;;5037359;28;20288;-76
2022/04/21 03:14:40;;;;;;;4.80;3.87;;;5.60;99.90;;;;;;5037560;28;20204;-76
2022/04/21 03:17:07;;;;;;;5.23;4.37;;;5.60;99.90;;;;;;5037397;28;20200;-76
2022/04/21 03:19:33;;;;;;;4.87;4.37;;;5.60;99.90;;;;;;5037216;28;20248;-76
2022/04/21 03:24:44;;;;;;;4.73;4.33;;;5.60;99.90;;;;;;5054290;28;20233;-76
2022/04/21 03:27:10;;;;;;;5.87;4.03;;;5.60;99.90;;;;;;5055013;28;20645;-76
2022/04/21 03:29:37;;;;;;;6.10;4.27;;;5.70;99.90;;;;;;5037094;28;20204;-76
2022/04/21 03:32:21;;;;;;;4.93;4.43;;;5.70;99.90;;;;;;5036932;28;20188;-76
2022/04/21 03:34:47;;;;;;;5.70;4.13;;;5.80;99.90;;;;;;5036998;28;20667;-76
2022/04/21 03:37:15;;;;;;;5.57;4.10;;;5.80;99.90;;;;;;5037215;28;20262;-76
2022/04/21 03:39:43;;;;;;;4.67;4.10;;;5.70;99.90;;;;;;5036843;28;20190;-76
2022/04/21 03:42:31;;;;;;;4.90;4.40;;;5.60;99.90;;;;;;5036730;28;20176;-76
2022/04/21 03:44:57;;;;;;;5.03;4.30;;;5.60;99.90;;;;;;5036897;28;20197;-76
2022/04/21 03:47:23;;;;;;;5.13;4.50;;;5.60;99.90;;;;;;5037152;28;20175;-76
2022/04/21 03:49:49;;;;;;;5.47;4.30;;;5.60;99.90;;;;;;5036566;28;20202;-76
2022/04/21 03:52:15;;;;;;;8.17;4.50;;;5.70;99.90;;;;;;5036407;28;20182;-76
2022/04/21 03:54:41;;;;;;;4.67;4.10;;;5.80;99.90;;;;;;5036557;28;20292;-76
2022/04/21 03:57:07;;;;;;;6.30;5.13;;;5.90;99.90;;;;;;5053585;28;20205;-76
2022/04/21 03:59:34;;;;;;;5.73;4.30;;;5.90;99.90;;;;;;5036671;28;20583;-76
2022/04/21 04:02:03;;;;;;;5.17;4.60;;;6.00;99.90;;;;;;5053048;28;20164;-76
2022/04/21 04:04:38;;;;;;;5.07;4.50;;;6.00;99.90;;;;;;5054269;28;20593;-76
2022/04/21 04:12:35;;;;;;;5.50;4.67;;;6.10;99.90;;;;;;5053303;28;20577;-76
2022/04/21 04:15:03;;;;;;;6.73;5.07;;;6.10;99.90;;;;;;5036589;28;20189;-76
2022/04/21 04:17:28;;;;;;;6.10;5.00;;;6.10;99.90;;;;;;5036466;28;20620;-76
2022/04/21 04:19:54;;;;;;;5.50;4.70;;;6.20;99.90;;;;;;5036014;28;20324;-76
2022/04/21 04:22:20;;;;;;;5.23;4.33;;;6.20;99.90;;;;;;5036281;28;20547;-76
2022/04/21 04:24:46;;;;;;;6.53;4.80;;;6.20;99.90;;;;;;5036452;28;20584;-76
2022/04/21 04:27:12;;;;;;;6.93;5.37;;;6.20;99.90;;;;;;5036267;28;20185;-76
2022/04/21 04:29:37;;;;;;;6.60;4.70;;;6.20;99.90;;;;;;5036324;28;20198;-76
2022/04/21 04:32:03;;;;;;;7.57;5.17;;;6.20;99.90;;;;;;5035806;28;20323;-76
2022/04/21 04:34:29;;;;;;;6.53;4.87;;;6.20;99.90;;;;;;5035837;28;20208;-76
2022/04/21 04:36:55;;;;;;;6.63;5.17;;;6.20;99.90;;;;;;5035720;28;20186;-76
2022/04/21 04:39:20;;;;;;;7.47;4.63;;;6.20;99.90;;;;;;5035922;28;20201;-76
2022/04/21 04:44:30;;;;;;;5.03;4.40;;;6.30;99.90;;;;;;5052908;28;20173;-75
2022/04/21 04:46:56;;;;;;;5.60;5.00;;;6.30;99.90;;;;;;5035772;28;20183;-76
2022/04/21 04:49:22;;;;;;;6.93;5.10;;;6.30;99.90;;;;;;5052138;28;20288;-76
2022/04/21 04:51:48;;;;;;;8.43;5.17;;;6.40;99.90;;;;;;5053339;28;20586;-76
2022/04/21 04:54:15;;;;;;;5.60;4.50;;;6.50;99.90;;;;;;5052392;28;20662;-76
2022/04/21 04:56:42;;;;;;;5.43;4.93;;;6.70;99.90;;;;;;5035796;28;20179;-76
2022/04/21 04:59:08;;;;;;;7.27;5.27;;;6.80;99.90;;;;;;5035490;28;20225;-76
2022/04/21 05:01:40;;;;;;;7.77;4.90;;;6.80;99.90;;;;;;5034945;28;20181;-76
2022/04/21 05:04:11;;;;;;;7.73;5.20;;;6.80;99.90;;;;;;5035214;28;20177;-76
2022/04/21 05:06:42;;;;;;;8.10;4.77;;;6.80;99.90;;;;;;5035624;28;20171;-76
2022/04/21 05:09:10;;;;;;;6.17;4.83;;;6.90;99.90;;;;;;5035183;28;20268;-76
2022/04/21 05:11:37;;;;;;;6.47;4.63;;;6.90;99.90;;;;;;5035185;28;20239;-76
2022/04/21 05:14:04;;;;;;;6.13;5.00;;;6.80;99.90;;;;;;5052822;28;20190;-76
2022/04/21 05:16:29;;;;;;;6.87;5.00;;;6.80;99.90;;;;;;5035458;28;20178;-76
2022/04/21 05:18:58;;;;;;;8.10;5.47;;;6.80;99.90;;;;;;5035043;28;20257;-76
2022/04/21 05:21:25;;;;;;;5.97;5.37;;;6.90;99.90;;;;;;5035308;28;20187;-76
2022/04/21 05:23:57;;;;;;;6.87;5.50;;;6.90;99.90;;;;;;5051849;28;20184;-76
2022/04/21 05:26:23;;;;;;;6.33;4.10;;;7.00;99.90;;;;;;5035033;28;20631;-76
2022/04/21 05:28:49;;;;;;;4.53;4.10;;;7.40;99.90;;;;;;5051778;28;20215;-75
2022/04/21 05:31:16;;;;;;;6.93;5.40;;;7.90;99.90;;;;;;5034811;28;20176;-76
2022/04/21 05:33:43;;;;;;;6.20;5.30;;;8.00;99.90;;;;;;5051754;28;20200;-75
2022/04/21 05:36:09;;;;;;;5.63;4.40;;;7.60;99.90;;;;;;5034792;28;20242;-74
2022/04/21 05:38:35;;;;;;;8.97;5.07;;;7.50;99.90;;;;;;5034708;28;20296;-75
2022/04/21 05:41:02;;;;;;;6.50;4.90;;;7.80;99.90;;;;;;5052728;28;20169;-75
2022/04/21 05:43:36;;;;;;;6.53;4.97;;;7.90;99.90;;;;;;5034660;28;20188;-75
2022/04/21 05:46:02;;;;;;;7.63;5.30;;;7.80;99.90;;;;;;5052727;28;20214;-77
2022/04/21 05:48:28;;;;;;;7.03;5.07;;;7.80;99.90;;;;;;5051517;28;20199;-76
2022/04/21 05:50:54;;;;;;;6.00;5.07;;;7.70;99.90;;;;;;5034011;28;20192;-76
2022/04/21 05:53:21;;;;;;;6.40;4.93;;;7.70;99.90;;;;;;5034448;28;20205;-75
2022/04/21 05:55:47;;;;;;;8.33;4.90;;;7.70;99.90;;;;;;5001848;28;20319;-75
2022/04/21 05:58:13;;;;;;;7.07;5.00;;;7.80;99.90;;;;;;5034998;28;20179;-75
2022/04/21 06:00:39;;;;;;;5.07;4.53;;;7.80;99.90;;;;;;5035451;28;20169;-77
2022/04/21 06:03:05;;;;;;;5.80;4.70;;;7.80;99.90;;;;;;5034743;28;20189;-77
2022/04/21 06:05:31;;;;;;;5.93;4.33;;;7.90;99.90;;;;;;5018437;28;20177;-76
2022/04/21 06:07:57;;;;;;;6.80;4.73;;;8.00;99.90;;;;;;5018188;28;20232;-77
2022/04/21 06:10:22;;;;;;;5.50;4.67;;;8.10;99.90;;;;;;5018182;28;20608;-77
2022/04/21 06:12:49;;;;;;;7.57;5.00;;;8.20;99.90;;;;;;5002081;28;20192;-77
2022/04/21 06:15:15;;;;;;;6.63;4.90;;;8.20;99.90;;;;;;5038506;28;20200;-75
2022/04/21 06:17:42;;;;;;;5.73;5.00;;;8.30;99.90;;;;;;5022327;28;20243;-75
2022/04/21 06:20:09;;;;;;;6.13;4.63;;;8.30;99.90;;;;;;5005860;28;20206;-76
2022/04/21 06:22:34;;;;;;;8.33;5.03;;;8.30;99.90;;;;;;5038516;28;20180;-76
2022/04/21 06:25:00;;;;;;;7.37;4.90;;;8.30;99.90;;;;;;5004890;28;20189;-76
2022/04/21 06:27:26;;;;;;;5.87;4.57;;;8.20;99.90;;;;;;5038543;28;20177;-76
2022/04/21 06:29:51;;;;;;;6.90;4.43;;;8.20;99.90;;;;;;5038249;28;20236;-76
2022/04/21 06:32:17;;;;;;;6.37;4.40;;;8.10;99.90;;;;;;5005373;28;20272;-75
2022/04/21 06:34:43;;;;;;;6.87;4.87;;;8.10;99.90;;;;;;5021974;28;20671;-80
2022/04/21 06:37:09;;;;;;;5.47;4.70;;;8.20;99.90;;;;;;5005802;28;20252;-76
2022/04/21 06:39:34;;;;;;;4.57;4.17;;;8.20;99.90;;;;;;5005311;28;20219;-77
2022/04/21 06:42:00;;;;;;;5.50;4.70;;;8.30;99.90;;;;;;5037794;28;20224;-77
2022/04/21 06:49:53;;;;;;;4.70;3.70;;;8.40;99.90;;;;;;5041727;28;20725;-77
2022/04/21 06:52:19;;;;;;;4.20;3.63;;;8.50;99.90;;;;;;5005045;28;20177;-76
2022/04/21 06:54:45;;;;;;;4.20;3.80;;;8.60;99.90;;;;;;5038050;28;20204;-77
2022/04/21 06:57:10;;;;;;;6.07;4.00;;;8.50;99.90;;;;;;5004824;28;20214;-77
2022/04/21 06:59:37;;;;;;;4.73;3.60;;;8.50;99.90;;;;;;5038339;28;20216;-80
2022/04/21 07:02:04;;;;;;;5.90;3.80;;;8.40;99.90;;;;;;5021387;28;20554;-76
2022/04/21 07:04:30;;;;;;;6.37;4.10;;;8.40;99.90;;;;;;5021393;28;20184;-76
2022/04/21 07:06:55;;;;;;;5.30;4.10;;;8.50;99.90;;;;;;5021468;28;20193;-76
2022/04/21 07:09:21;;;;;;;5.13;3.93;;;8.60;99.90;;;;;;5021224;28;20201;-76
2022/04/21 07:11:47;;;;;;;5.47;3.63;;;8.70;99.90;;;;;;5004798;28;20178;-76
2022/04/21 07:14:12;;;;;;;6.20;3.60;;;8.80;99.90;;;;;;5004929;28;20274;-76
2022/04/21 07:16:38;;;;;;;4.00;3.40;;;8.80;99.90;;;;;;5004596;28;20185;-76
2022/04/21 07:19:04;;;;;;;5.23;3.70;;;8.80;99.90;;;;;;5004444;28;20201;-76
2022/04/21 07:21:29;;;;;;;4.30;3.83;;;8.80;99.90;;;;;;5021119;28;20202;-76
2022/04/21 07:23:55;;;;;;;6.73;4.00;;;8.80;99.90;;;;;;5004529;28;20185;-76
2022/04/21 07:26:21;;;;;;;5.63;3.90;;;8.90;99.90;;;;;;5020866;28;20632;-76
2022/04/21 07:28:46;;;;;;;4.47;3.67;;;8.90;99.90;;;;;;5037219;28;20200;-76
2022/04/21 07:31:12;;;;;;;4.50;3.83;;;8.90;99.90;;;;;;5020898;28;20181;-76
2022/04/21 07:33:38;;;;;;;5.83;3.73;;;8.70;99.90;;;;;;5037228;28;20197;-76
2022/04/21 07:36:03;;;;;;;6.30;3.80;;;8.70;99.90;;;;;;5020571;28;20265;-76
2022/04/21 07:38:31;;;;;;;4.07;3.50;;;8.90;99.90;;;;;;5020691;28;20570;-76
2022/04/21 07:40:56;;;;;;;4.37;3.57;;;9.10;99.90;;;;;;5037448;28;20199;-76
2022/04/21 07:43:22;;;;;;;4.93;3.50;;;9.10;99.90;;;;;;5054811;28;20198;-76
2022/04/21 07:45:49;;;;;;;5.77;3.90;;;9.20;99.90;;;;;;5037226;28;20170;-79
2022/04/21 07:48:15;;;;;;;6.03;4.33;;;9.30;99.90;;;;;;5020702;28;20185;-76
2022/04/21 07:50:41;;;;;;;5.73;3.93;;;9.40;99.90;;;;;;5020691;28;20177;-78
2022/04/21 07:53:13;;;;;;;5.20;3.70;;;9.50;99.90;;;;;;5004002;28;20185;-77
2022/04/21 07:55:39;;;;;;;5.27;3.70;;;9.60;99.90;;;;;;5005711;28;20208;-77
2022/04/21 07:58:06;;;;;;;4.47;3.43;;;9.70;99.90;;;;;;5054074;28;20165;-76
2022/04/21 08:00:32;;;;;;;4.07;3.67;;;9.70;99.90;;;;;;5035209;28;20174;-76
2022/04/21 08:02:58;;;;;;;5.40;3.53;;;9.80;99.90;;;;;;5018980;28;20189;-76
2022/04/21 08:05:23;;;;;;;6.17;3.60;;;9.90;99.90;;;;;;5019097;28;20175;-76
2022/04/21 08:07:50;;;;;;;5.17;3.70;;;9.90;99.90;;;;;;5036112;28;20174;-76
2022/04/21 08:10:16;;;;;;;6.53;3.97;;;10.00;99.90;;;;;;5019350;28;20708;-76
2022/04/21 08:12:46;;;;;;;5.93;4.20;;;10.10;99.90;;;;;;5019079;28;20179;-76
2022/04/21 08:15:14;;;;;;;6.00;3.90;;;10.20;99.90;;;;;;5019386;28;20223;-76
2022/04/21 08:17:40;;;;;;;5.33;4.03;;;10.30;99.90;;;;;;5019651;28;20206;-76
2022/04/21 08:20:10;;;;;;;6.77;4.00;;;10.40;99.90;;;;;;5035609;28;20249;-76
2022/04/21 08:22:37;;;;;;;4.90;3.63;;;10.40;99.90;;;;;;5035564;28;20180;-76
2022/04/21 08:33:16;;;;;;;6.97;3.90;;;10.70;99.90;;;;;;5038111;28;20203;-76
2022/04/21 08:35:44;;;;;;;3.73;3.37;;;10.90;99.90;;;;;;5018863;28;20184;-76
2022/04/21 08:38:10;;;;;;;5.37;3.90;;;11.00;99.90;;;;;;5018704;28;20267;-76
2022/04/21 08:40:52;;;;;;;4.70;3.60;;;11.10;99.90;;;;;;5018863;28;20200;-76
2022/04/21 08:43:18;;;;;;;5.00;3.77;;;11.20;99.90;;;;;;5052899;28;20172;-76
2022/04/21 08:45:44;;;;;;;4.10;3.57;;;11.40;99.90;;;;;;5051622;28;20173;-76
2022/04/21 08:48:11;;;;;;;4.07;3.50;;;11.40;99.90;;;;;;5018716;28;20177;-76
2022/04/21 08:50:38;;;;;;;6.73;3.83;;;11.40;99.90;;;;;;5035169;28;20209;-76
2022/04/21 08:53:06;;;;;;;4.80;3.80;;;11.40;99.90;;;;;;5034822;28;20542;-76
2022/04/21 08:55:33;;;;;;;4.30;3.87;;;11.40;99.90;;;;;;5035270;28;20201;-76
2022/04/21 08:58:02;;;;;;;4.10;3.60;;;11.60;99.90;;;;;;5035285;28;20223;-76
2022/04/21 09:00:31;;;;;;;4.37;3.63;;;11.60;99.90;;;;;;5034784;28;20189;-76
2022/04/21 09:02:57;;;;;;;5.50;3.67;;;11.60;99.90;;;;;;5052515;28;20169;-76
2022/04/21 09:05:26;;;;;;;5.10;4.00;;;11.70;99.90;;;;;;5018735;28;20663;-77
2022/04/21 09:07:52;;;;;;;6.53;4.17;;;11.80;99.90;;;;;;5034792;28;20170;-76
2022/04/21 09:10:20;;;;;;;6.70;4.00;;;11.90;99.90;;;;;;5034652;28;20256;-76
2022/04/21 09:12:47;;;;;;;6.23;4.10;;;11.90;99.90;;;;;;5034855;28;20589;-76
2022/04/21 09:15:15;;;;;;;4.63;3.73;;;11.90;99.90;;;;;;5034633;28;20205;-76
2022/04/21 09:17:48;;;;;;;6.67;4.20;;;12.00;99.90;;;;;;5034873;28;20188;-76
2022/04/21 09:20:21;;;;;;;5.37;4.00;;;12.20;99.90;;;;;;5034499;28;20220;-76
2022/04/21 09:22:52;;;;;;;5.70;4.27;;;12.40;99.90;;;;;;5034423;28;20176;-76
2022/04/21 09:25:28;;;;;;;4.90;3.87;;;12.50;99.90;;;;;;5034620;28;20188;-76
2022/04/21 09:27:55;;;;;;;5.90;4.30;;;12.60;99.90;;;;;;5052406;28;20168;-76
2022/04/21 09:30:21;;;;;;;5.83;4.23;;;12.80;99.90;;;;;;5001820;28;20197;-76
2022/04/21 09:32:52;;;;;;;4.40;3.97;;;13.20;99.90;;;;;;5052377;28;20174;-76
2022/04/21 09:35:19;;;;;;;6.23;4.17;;;13.70;99.90;;;;;;5035122;28;20193;-77
2022/04/21 09:37:50;;;;;;;5.43;4.20;;;14.10;99.90;;;;;;5018521;28;20640;-76
2022/04/21 09:40:20;;;;;;;4.70;3.67;;;14.40;99.90;;;;;;5018487;28;20202;-77
2022/04/21 09:42:54;;;;;;;4.97;4.43;;;14.50;99.90;;;;;;5034553;28;20651;-78
2022/04/21 09:48:30;;;;;;;5.03;4.40;;;14.80;99.90;;;;;;5037416;28;20164;-76
2022/04/21 09:51:39;;;;;;;5.20;4.20;;;15.00;99.90;;;;;;5034577;28;20242;-75
2022/04/21 09:54:05;;;;;;;4.90;3.93;;;15.00;99.90;;;;;;4990851;28;20691;-76
2022/04/21 09:56:53;;;;;;;3.90;3.50;;;14.40;99.90;;;;;;5001547;28;20184;-76
2022/04/21 09:59:20;;;;;;;3.93;3.53;;;14.10;99.90;;;;;;5017726;28;20274;-75
2022/04/21 10:01:46;;;;;;;4.10;3.63;;;14.00;99.90;;;;;;5018073;28;20178;-74
2022/04/21 10:04:12;;;;;;;4.70;3.70;;;13.80;99.90;;;;;;5034628;28;20198;-75
2022/04/21 10:06:39;;;;;;;12.90;5.33;;;14.00;99.90;;;;;;5051444;28;20170;-77
2022/04/21 10:09:09;;;;;;;9.63;4.77;;;14.20;99.90;;;;;;5018206;28;20690;-77
2022/04/21 10:11:38;;;;;;;5.97;3.97;;;14.50;99.90;;;;;;5034662;28;20173;-77
2022/04/21 10:14:05;;;;;;;6.27;3.80;;;14.70;99.90;;;;;;5034273;28;20182;-77
2022/04/21 10:16:31;;;;;;;4.50;3.87;;;14.70;99.90;;;;;;5034675;28;20178;-77
2022/04/21 10:18:59;;;;;;;5.90;3.63;;;14.90;99.90;;;;;;5034385;28;20208;-77
2022/04/21 10:21:32;;;;;;;5.13;3.67;;;15.00;99.90;;;;;;5034633;28;20257;-77
2022/04/21 10:23:59;;;;;;;8.20;3.90;;;15.10;99.90;;;;;;5034128;28;20205;-77
2022/04/21 10:26:38;;;;;;;4.00;3.60;;;15.30;99.90;;;;;;5034544;28;20170;-77
2022/04/21 10:29:48;;;;;;;4.87;3.77;;;15.30;99.90;;;;;;5052113;28;20193;-77
2022/04/21 10:32:18;;;;;;;3.60;3.30;;;15.40;99.90;;;;;;5014479;28;20189;-78
2022/04/21 10:34:46;;;;;;;4.00;3.37;;;16.00;99.90;;;;;;5034696;28;20182;-79
2022/04/21 10:37:16;;;;;;;4.10;3.60;;;16.00;99.90;;;;;;5018224;28;20177;-75
2022/04/21 10:40:07;;;;;;;3.60;2.60;;;15.70;99.90;;;;;;5034123;28;20225;-76
2022/04/21 10:42:52;;;;;;;3.80;3.10;;;15.40;99.90;;;;;;5017621;28;20181;-76
2022/04/21 10:45:23;;;;;;;3.97;3.37;;;15.80;99.90;;;;;;5034174;28;20200;-76
2022/04/21 10:48:06;;;;;;;3.70;3.10;;;16.20;99.90;;;;;;5052247;28;20166;-77
2022/04/21 10:50:33;;;;;;;4.03;3.07;;;16.50;99.90;;;;;;5034331;28;20667;-76
2022/04/21 10:58:39;;;;;;;4.53;3.00;;;17.00;99.90;;;;;;5051860;28;20271;-77
2022/04/21 11:01:09;;;;;;;4.33;3.20;;;17.40;99.90;;;;;;5054842;28;20181;-77
2022/04/21 11:03:36;;;;;;;3.20;2.90;;;17.90;99.90;;;;;;5037178;28;20201;-76
2022/04/21 11:06:10;;;;;;;3.63;3.23;;;18.30;99.90;;;;;;5021081;28;20181;-76
2022/04/21 11:08:36;;;;;;;3.90;3.50;;;18.50;99.90;;;;;;5021261;28;20220;-76
2022/04/21 11:11:02;;;;;;;3.90;3.20;;;18.10;99.90;;;;;;5004659;28;20178;-76
2022/04/21 11:13:41;;;;;;;3.50;3.20;;;17.10;99.90;;;;;;5020945;28;20181;-76
2022/04/21 11:16:07;;;;;;;5.87;3.17;;;16.90;99.90;;;;;;5055269;28;20512;-76
2022/04/21 11:18:33;;;;;;;3.80;3.40;;;16.70;99.90;;;;;;5020858;28;20224;-76
2022/04/21 11:21:29;;;;;;;4.33;3.60;;;16.40;99.90;;;;;;5004652;28;20193;-76
2022/04/21 11:23:54;;;;;;;3.40;3.10;;;16.30;99.90;;;;;;5046864;28;20206;-76
2022/04/21 11:26:28;;;;;;;4.10;3.30;;;16.20;99.90;;;;;;5054919;28;20181;-76
2022/04/21 11:28:59;;;;;;;4.30;3.30;;;16.20;99.90;;;;;;5037482;28;20220;-75
2022/04/21 11:31:25;;;;;;;3.50;2.97;;;16.10;99.90;;;;;;5037150;28;20176;-75
2022/04/21 11:33:51;;;;;;;4.40;3.40;;;16.60;99.90;;;;;;5037247;28;20178;-75
2022/04/21 11:36:17;;;;;;;4.83;3.70;;;16.80;99.90;;;;;;5020804;28;20189;-75
2022/04/21 11:38:45;;;;;;;4.70;3.80;;;16.80;99.90;;;;;;5020854;28;20194;-75
2022/04/21 11:41:13;;;;;;;3.53;3.23;;;16.30;99.90;;;;;;5020765;28;20649;-75
2022/04/21 11:43:49;;;;;;;4.17;3.33;;;16.20;99.90;;;;;;5036602;28;20206;-75
2022/04/21 11:46:19;;;;;;;3.90;3.50;;;16.10;99.90;;;;;;5054648;28;20659;-75
2022/04/21 11:48:44;;;;;;;3.57;3.20;;;16.60;99.90;;;;;;5037104;28;20718;-75
2022/04/21 11:51:24;;;;;;;3.87;3.33;;;16.70;99.90;;;;;;5020349;28;20696;-75
2022/04/21 11:53:50;;;;;;;4.00;3.50;;;16.30;99.90;;;;;;5038531;28;20161;-75
2022/04/21 11:59:38;;;;;;;4.40;3.90;;;17.20;99.90;;;;;;5054192;28;20271;-75
2022/04/21 12:07:33;;;;;;;6.63;4.10;;;17.70;99.90;;;;;;5025446;28;20169;-75
2022/04/21 12:09:59;;;;;;;5.20;4.43;;;17.40;99.90;;;;;;5020026;28;20185;-75
2022/04/21 12:12:25;;;;;;;5.23;4.40;;;17.30;99.90;;;;;;5053088;28;20249;-75
2022/04/21 12:14:51;;;;;;;5.83;4.90;;;16.90;99.90;;;;;;5003762;28;20268;-76
2022/04/21 12:17:16;;;;;;;4.60;4.00;;;16.70;99.90;;;;;;5003769;28;20228;-75
2022/04/21 12:19:46;;;;;;;5.43;4.33;;;16.30;99.90;;;;;;5019744;28;20224;-76
2022/04/21 12:22:17;;;;;;;5.80;4.67;;;16.60;99.90;;;;;;5019810;28;20188;-76
2022/04/21 12:24:54;;;;;;;6.50;5.23;;;17.00;99.90;;;;;;5036392;28;20221;-76
2022/04/21 12:27:38;;;;;;;6.17;4.60;;;16.70;99.90;;;;;;5019753;28;20169;-76
2022/04/21 12:30:06;;;;;;;6.77;5.17;;;16.60;99.90;;;;;;5006678;28;20217;-76
2022/04/21 12:32:34;;;;;;;7.07;5.30;;;16.10;99.90;;;;;;5036183;28;20188;-75
2022/04/21 12:35:07;;;;;;;6.17;5.13;;;16.00;99.90;;;;;;5053817;28;20659;-74
2022/04/21 12:37:35;;;;;;;7.17;5.10;;;15.80;99.90;;;;;;5035501;28;20648;-75
2022/04/21 12:40:04;;;;;;;7.50;5.20;;;16.00;99.90;;;;;;5035614;28;20680;-75
2022/04/21 12:42:31;;;;;;;6.50;4.90;;;16.10;99.90;;;;;;5036081;28;20177;-76
2022/04/21 12:48:25;;;;;;;6.50;4.47;;;15.80;99.90;;;;;;5053254;28;20688;-76
2022/04/21 12:50:52;;;;;;;6.10;5.00;;;15.60;99.90;;;;;;5066217;28;20180;-76
2022/04/21 12:53:28;;;;;;;5.03;4.40;;;15.60;99.90;;;;;;5055201;28;20184;-76
2022/04/21 12:59:16;;;;;;;5.53;4.70;;;16.00;99.90;;;;;;5108590;22;20327;-75
2022/04/21 13:01:42;;;;;;;9.00;5.33;;;15.90;99.90;;;;;;5018857;28;20260;-75
2022/04/21 13:04:08;;;;;;;5.57;4.60;;;15.80;99.90;;;;;;5018798;28;20202;-76
2022/04/21 13:06:34;;;;;;;6.37;5.00;;;15.90;99.90;;;;;;5019178;28;20174;-76
2022/04/21 13:08:59;;;;;;;6.57;4.73;;;15.80;99.90;;;;;;5019132;28;20200;-76
2022/04/21 13:11:25;;;;;;;5.87;5.17;;;15.80;99.90;;;;;;5002780;28;20184;-76
2022/04/21 13:13:52;;;;;;;6.30;5.20;;;15.80;99.90;;;;;;5002544;28;20201;-76
2022/04/21 13:16:18;;;;;;;7.23;5.50;;;15.50;99.90;;;;;;5019343;28;20177;-76
2022/04/21 13:18:45;;;;;;;7.20;6.00;;;15.40;99.90;;;;;;5041923;28;20185;-75
2022/04/21 13:23:55;;;;;;;7.30;6.00;;;15.10;99.90;;;;;;5072643;28;20664;-75
2022/04/21 13:26:24;;;;;;;9.30;6.10;;;15.20;99.90;;;;;;5038684;28;20161;-76
2022/04/21 13:28:49;;;;;;;6.43;4.63;;;15.00;99.90;;;;;;5022289;28;20197;-76
2022/04/21 13:33:59;;;;;;;5.70;4.93;;;15.00;99.90;;;;;;5072960;28;20167;-76
2022/04/21 13:36:25;;;;;;;8.70;4.57;;;14.90;99.90;;;;;;5038305;28;20177;-75
2022/04/21 13:38:51;;;;;;;6.93;5.73;;;15.00;99.90;;;;;;5055085;28;20250;-75
2022/04/21 13:41:19;;;;;;;7.23;5.43;;;14.90;99.90;;;;;;5054843;28;20227;-75
2022/04/21 13:43:45;;;;;;;7.63;5.50;;;14.70;99.90;;;;;;5055034;28;20220;-76
2022/04/21 13:49:48;;;;;;;7.50;5.10;;;14.90;99.90;;;;;;5072563;28;20196;-76
2022/04/21 13:52:13;;;;;;;8.37;5.20;;;14.90;99.90;;;;;;5054569;28;20177;-75
2022/04/21 13:54:39;;;;;;;5.67;5.00;;;14.90;99.90;;;;;;5038232;28;20181;-76
2022/04/21 13:57:05;;;;;;;6.73;5.27;;;14.80;99.90;;;;;;5038067;28;20177;-76
2022/04/21 13:59:31;;;;;;;6.80;5.07;;;15.00;99.90;;;;;;5021541;28;20646;-80
2022/04/21 14:01:57;;;;;;;6.37;5.10;;;14.90;99.90;;;;;;5038007;28;20185;-75
2022/04/21 14:04:23;;;;;;;5.77;5.17;;;14.90;99.90;;;;;;5054562;28;20207;-75